Terminal Aerodrome Forecast
Issued by NWS Sioux Falls, SD

Home | Current Version | Previous Version | Graphics & Text | Print | Product List | Glossary On
Versions: 1 2 3 4 5 6 7 8 9 10 11 12 13 14 15 16 17 18
000
FTUS43 KFSD 222328
TAFFSD
TAF
KFSD 222328Z 2300/2324 08011KT P6SM FEW025 SCT050
     FM230400 08005KT P6SM FEW025 SCT150
     FM230900 12006KT P6SM SCT025 BKN110
     FM231400 15009KT P6SM BKN150
     FM231600 16010KT P6SM SCT150 BKN200
     FM231900 18012G18KT P6SM SCT200=

USA.gov is the U.S. government's official web portal to all federal, state and local government web resources and services.